Terminal Aerodrome Forecast
Issued by NWS Brownsville, TX

Home | Current Version | Previous Version | Text Only | Print | Product List | Glossary On
Versions: 1 2 3 4 5 6 7 8 9 10 11 12 13 14 15 16 17
909
FTUS44 KBRO 251720
TAFMFE
TAF
KMFE 251720Z 2518/2618 13006KT P6SM SCT050
     FM260600 VRB04KT P6SM FEW015
     FM261500 17010KT P6SM SKC=

USA.gov is the U.S. government's official web portal to all federal, state and local government web resources and services.